Crawford — 9V3169 — position and weather

sailwx.info

Track history (hours):
 
Tides and Currents Weather Stations Pressure Air Temp Water Temp Dewpoint Dewpoint Depression Visibility Wind Speed Wind Dir Waves Ship Positions

Crawford

Last reported at 2017-Oct-14 03:52 UTC. Time now 2017-Oct-22 06:32 UTC.
Position N 37°28' E 025°56'.
Warning: this ship's position is 8 days out of date.

Length 176 m; draft 7.2 m.

Type: Ship. MMSI: 565826000.

Date/timePositionNaut miles runAvg speedWind from/ knotsBaromVisibWave heightAir tempDewpointWater temp
2017-Oct-14 03:52N 37°28' E 025°56'512.9
2017-Oct-14 03:30N 37°32' E 025°55'11812.7
2017-Oct-13 18:09N 39°17' E 024°43'412.9
2017-Oct-13 17:50N 39°20' E 024°40'413.0
2017-Oct-13 17:30N 39°23' E 024°37'1512.9
2017-Oct-13 16:18N 39°33' E 024°21'913.1
2017-Oct-13 15:35N 39°36' E 024°09'113.4
2017-Oct-13 15:30N 39°37' E 024°08'713.4
2017-Oct-13 15:00N 39°39' E 024°00'1413.0
2017-Oct-13 13:56N 39°45' E 023°43'  
2017-Oct-10 14:43N 39°39' E 024°01'913.0
2017-Oct-10 14:00N 39°36' E 024°12'14512.2
2017-Oct-10 02:11N 37°36' E 025°54'212.6
2017-Oct-10 02:00N 37°34' E 025°55'  
Track history (hours):
 
Tides and Currents Weather Stations Pressure Air Temp Water Temp Dewpoint Dewpoint Depression Visibility Wind Speed Wind Dir Waves Ship Positions

Crawford

Last reported at 2017-Oct-14 03:52 UTC. Time now 2017-Oct-22 06:32 UTC.
Position N 37°28' E 025°56'.
Warning: this ship's position is 8 days out of date.

Length 176 m; draft 7.2 m.

Type: Ship. MMSI: 565826000.

Date/timePositionNaut miles runAvg speedWind from/ knotsBaromVisibWave heightAir tempDewpointWater temp
2017-Oct-14 03:52N 37°28' E 025°56'512.9
2017-Oct-14 03:30N 37°32' E 025°55'11812.7
2017-Oct-13 18:09N 39°17' E 024°43'412.9
2017-Oct-13 17:50N 39°20' E 024°40'413.0
2017-Oct-13 17:30N 39°23' E 024°37'1512.9
2017-Oct-13 16:18N 39°33' E 024°21'913.1
2017-Oct-13 15:35N 39°36' E 024°09'113.4
2017-Oct-13 15:30N 39°37' E 024°08'713.4
2017-Oct-13 15:00N 39°39' E 024°00'1413.0
2017-Oct-13 13:56N 39°45' E 023°43'  
2017-Oct-10 14:43N 39°39' E 024°01'913.0
2017-Oct-10 14:00N 39°36' E 024°12'14512.2
2017-Oct-10 02:11N 37°36' E 025°54'212.6
2017-Oct-10 02:00N 37°34' E 025°55'  

Dump ship's entire track history